Kriva Palanka, Macedonia
Current Conditions -  °F | °C
As of 3:30 AM on Monday 22 Dec 2014 (Local Time) from LWSK Reporting Station
Few Clouds Few Clouds  
Wind Chill: 25°   Ceiling: Unl
Heat Index: 30°   Visibility: 6mi
Dew Point: 25°   Wind: 5mph
Humidity: 80%   Direction: 20°NNE
Pressure: 30.48"   Gusts: NA
Location:  42.22°N, 22.33°E
Report Text: LWSK 220230Z 02004KT 9999 FEW060 M01/M04 Q1032 NOSIG
Loading
Personal Weather Stations






























Interactive Weather Map New forecast layout! Learn more

10-Day Weather Forecast

Advertisements
Track Severe Weather on mobile